createdAt,value
2022-11-29T00:00:11.560Z,43.97
2022-11-29T00:06:13.925Z,41.35
2022-11-29T00:12:15.217Z,39.55
2022-11-29T00:18:08.523Z,39.85
2022-11-29T00:24:01.643Z,38.42
2022-11-29T00:29:54.628Z,40.08
2022-11-29T00:35:47.302Z,39.97
2022-11-29T00:41:40.358Z,38.13
2022-11-29T00:47:32.952Z,39.17
2022-11-29T00:53:25.380Z,42.47
2022-11-29T00:59:17.544Z,40.78
2022-11-29T01:05:10.020Z,40.65
2022-11-29T01:11:14.824Z,40.30
2022-11-29T01:17:07.369Z,38.90
2022-11-29T01:22:59.422Z,38.22
2022-11-29T01:28:53.022Z,36.85
2022-11-29T01:34:45.915Z,37.42
2022-11-29T01:40:38.123Z,37.20
2022-11-29T01:46:33.419Z,37.45
2022-11-29T01:52:32.902Z,34.30
2022-11-29T01:58:26.041Z,35.95
2022-11-29T02:04:20.144Z,34.80
2022-11-29T02:10:14.160Z,34.22
2022-11-29T02:16:15.623Z,33.15
2022-11-29T02:22:41.957Z,34.53
2022-11-29T02:28:37.223Z,31.08
2022-11-29T02:34:58.623Z,31.77
2022-11-29T02:41:12.460Z,30.88
2022-11-29T02:47:27.082Z,30.02
2022-11-29T02:53:32.692Z,31.33
2022-11-29T02:59:32.662Z,32.90
2022-11-29T03:05:53.421Z,34.92
2022-11-29T03:12:03.044Z,33.53
2022-11-29T03:18:34.022Z,32.30
2022-11-29T03:24:37.242Z,31.92
2022-11-29T03:30:32.989Z,31.07
2022-11-29T03:36:45.385Z,31.00
2022-11-29T03:42:52.829Z,29.75
2022-11-29T03:48:52.252Z,27.67
2022-11-29T03:55:07.184Z,28.90
2022-11-29T04:01:17.763Z,27.27
2022-11-29T04:07:24.787Z,28.98
2022-11-29T04:13:30.140Z,27.45
2022-11-29T04:19:59.880Z,26.65
2022-11-29T04:26:19.461Z,27.98
2022-11-29T04:32:12.523Z,25.35
2022-11-29T04:38:35.200Z,27.27
2022-11-29T04:44:46.748Z,24.63
2022-11-29T04:51:26.368Z,25.20
2022-11-29T04:57:34.843Z,23.23
2022-11-29T05:03:35.921Z,23.42
2022-11-29T05:09:46.434Z,24.80
2022-11-29T05:15:53.893Z,24.90
2022-11-29T05:22:21.513Z,23.48
2022-11-29T05:28:20.744Z,24.10
2022-11-29T05:34:34.523Z,22.98
2022-11-29T05:40:57.915Z,23.83
2022-11-29T05:46:50.217Z,24.83
2022-11-29T05:52:50.694Z,26.33
2022-11-29T05:58:53.254Z,25.60
2022-11-29T06:04:48.835Z,26.63
2022-11-29T06:11:06.274Z,26.88
2022-11-29T06:17:25.787Z,26.77
2022-11-29T06:23:29.385Z,24.33
2022-11-29T06:29:41.115Z,24.80
2022-11-29T06:35:47.884Z,25.67
2022-11-29T06:41:40.286Z,23.17
2022-11-29T06:47:42.735Z,26.00
2022-11-29T06:53:51.745Z,30.37
2022-11-29T06:59:58.965Z,25.13
2022-11-29T07:05:51.445Z,28.60
2022-11-29T07:11:45.944Z,28.88
2022-11-29T07:17:47.720Z,30.08
2022-11-29T07:24:26.836Z,22.77
2022-11-29T07:30:27.821Z,27.13
2022-11-29T07:36:20.097Z,28.70
2022-11-29T07:42:29.645Z,25.33
2022-11-29T07:48:22.974Z,26.65
2022-11-29T07:54:19.034Z,25.95
2022-11-29T08:00:13.025Z,29.60
2022-11-29T08:06:07.308Z,26.08
2022-11-29T08:11:59.567Z,28.07
2022-11-29T08:17:53.515Z,26.60
2022-11-29T08:23:49.863Z,27.95
2022-11-29T08:29:42.525Z,27.13
2022-11-29T08:35:35.284Z,26.88
2022-11-29T08:41:27.735Z,28.20
2022-11-29T08:47:36.765Z,26.45
2022-11-29T08:53:41.561Z,27.90
2022-11-29T08:59:33.554Z,27.33
2022-11-29T09:05:26.596Z,27.85
2022-11-29T09:11:21.284Z,28.95
2022-11-29T09:17:13.477Z,28.33
2022-11-29T09:23:05.860Z,28.25
2022-11-29T09:29:01.519Z,28.23
2022-11-29T09:34:54.106Z,28.35
2022-11-29T09:40:53.286Z,29.70
2022-11-29T09:47:10.856Z,27.08
2022-11-29T09:53:10.155Z,28.80
2022-11-29T09:59:11.776Z,28.73
2022-11-29T10:05:15.596Z,32.75
2022-11-29T10:11:30.310Z,29.17
2022-11-29T10:17:41.775Z,28.80
2022-11-29T10:23:46.817Z,27.42
2022-11-29T10:29:38.904Z,27.60
2022-11-29T10:35:31.896Z,26.02
2022-11-29T10:41:24.245Z,24.52
2022-11-29T10:47:17.044Z,23.53
2022-11-29T10:53:19.354Z,22.60
2022-11-29T10:59:24.984Z,25.70
2022-11-29T11:05:26.821Z,29.02
2022-11-29T11:11:31.454Z,28.98
2022-11-29T11:17:33.077Z,28.27
2022-11-29T11:23:36.486Z,28.85
2022-11-29T11:29:40.009Z,26.50
2022-11-29T11:35:32.154Z,27.38
2022-11-29T11:41:47.633Z,27.60
2022-11-29T11:47:55.493Z,26.52
2022-11-29T11:53:53.740Z,24.35
2022-11-29T11:59:51.441Z,21.55
2022-11-29T12:05:46.560Z,22.40
2022-11-29T12:12:02.335Z,22.90
2022-11-29T12:18:06.367Z,23.27
2022-11-29T12:24:23.824Z,23.13
2022-11-29T12:30:16.568Z,19.92
2022-11-29T12:42:36.228Z,21.08
2022-11-29T12:49:01.885Z,22.00
2022-11-29T12:55:20.780Z,21.33
2022-11-29T13:01:29.602Z,23.75
2022-11-29T13:07:45.093Z,22.40
2022-11-29T13:13:50.565Z,24.05
2022-11-29T13:19:58.335Z,23.55
2022-11-29T13:25:54.476Z,23.65
2022-11-29T13:31:48.462Z,21.25
2022-11-29T13:38:10.674Z,18.77
2022-11-29T13:44:47.499Z,19.67
2022-11-29T13:50:44.870Z,17.65
2022-11-29T13:56:48.179Z,16.30
2022-11-29T14:02:41.353Z,16.80
2022-11-29T14:09:17.194Z,19.60
2022-11-29T14:15:21.406Z,16.95
2022-11-29T14:21:13.577Z,16.55
2022-11-29T14:27:06.635Z,17.83
2022-11-29T14:33:04.708Z,17.15
2022-11-29T14:39:04.473Z,17.77
2022-11-29T14:45:01.155Z,19.23
2022-11-29T14:51:19.048Z,19.60
2022-11-29T14:57:45.387Z,19.50
2022-11-29T15:03:45.520Z,20.27
2022-11-29T15:09:40.335Z,21.10
2022-11-29T15:16:04.305Z,19.52
2022-11-29T15:22:10.676Z,18.95
2022-11-29T15:28:07.525Z,20.17
2022-11-29T15:34:02.251Z,19.10
2022-11-29T15:40:20.256Z,19.75
2022-11-29T15:46:21.242Z,20.27
2022-11-29T15:52:26.216Z,20.05
2022-11-29T15:58:23.347Z,21.52
2022-11-29T16:04:22.267Z,23.48
2022-11-29T16:10:29.238Z,23.25
2022-11-29T16:16:29.128Z,23.63
2022-11-29T16:22:24.403Z,21.55
2022-11-29T16:28:16.914Z,23.10
2022-11-29T16:34:20.473Z,21.40
2022-11-29T16:40:33.104Z,23.17
2022-11-29T16:46:27.055Z,23.02
2022-11-29T16:52:32.237Z,23.75
2022-11-29T16:58:24.757Z,22.15
2022-11-29T17:04:23.930Z,20.60
2022-11-29T17:10:22.976Z,21.85
2022-11-29T17:16:19.592Z,28.05
2022-11-29T17:22:12.835Z,25.63
2022-11-29T17:28:05.154Z,25.80
2022-11-29T17:34:02.134Z,25.63
2022-11-29T17:40:01.448Z,29.95
2022-11-29T17:45:56.190Z,26.77
2022-11-29T17:51:52.093Z,26.58
2022-11-29T17:57:44.765Z,28.45
2022-11-29T18:03:40.215Z,27.98
2022-11-29T18:09:33.146Z,27.95
2022-11-29T18:15:26.714Z,27.10
2022-11-29T18:21:18.756Z,27.30
2022-11-29T18:27:10.716Z,25.55
2022-11-29T18:33:02.975Z,26.23
2022-11-29T18:39:09.638Z,26.00
2022-11-29T18:45:03.644Z,24.67
2022-11-29T18:51:01.126Z,30.02
2022-11-29T18:56:54.404Z,35.55
2022-11-29T19:02:48.071Z,44.03
2022-11-29T19:08:45.807Z,33.75
2022-11-29T19:14:43.831Z,32.83
2022-11-29T19:20:41.054Z,34.15
2022-11-29T19:26:35.727Z,33.53
2022-11-29T19:32:28.274Z,30.30
2022-11-29T19:38:20.245Z,28.67
2022-11-29T19:44:13.045Z,29.83
2022-11-29T19:50:07.098Z,30.35
2022-11-29T19:56:01.437Z,32.08
2022-11-29T20:01:54.787Z,32.40
2022-11-29T20:07:48.031Z,29.92
2022-11-29T20:13:43.657Z,30.88
2022-11-29T20:19:36.390Z,28.20
2022-11-29T20:25:29.795Z,39.30
2022-11-29T20:31:23.501Z,30.02
2022-11-29T20:37:36.234Z,42.90
2022-11-29T20:43:59.046Z,37.83
2022-11-29T20:49:55.687Z,33.70
2022-11-29T20:55:52.622Z,42.10
2022-11-29T21:01:49.286Z,41.28
2022-11-29T21:07:43.265Z,43.60
2022-11-29T21:13:35.815Z,42.10
2022-11-29T21:19:28.781Z,50.55
2022-11-29T21:25:58.821Z,49.63
2022-11-29T21:31:54.076Z,48.00
2022-11-29T21:37:46.669Z,43.38
2022-11-29T21:44:08.412Z,52.13
2022-11-29T21:49:54.507Z,53.35
2022-11-29T21:55:46.607Z,52.00
2022-11-29T22:01:40.037Z,50.00
2022-11-29T22:07:32.539Z,54.80
2022-11-29T22:13:25.915Z,56.78
2022-11-29T22:19:25.776Z,56.85
2022-11-29T22:25:18.443Z,54.45
2022-11-29T22:31:12.589Z,56.80
2022-11-29T22:37:04.662Z,53.58
2022-11-29T22:42:56.549Z,50.20
2022-11-29T22:48:51.935Z,55.38
2022-11-29T22:54:44.926Z,50.72
2022-11-29T23:00:44.086Z,55.83
2022-11-29T23:06:39.166Z,58.20
2022-11-29T23:12:31.445Z,57.00
2022-11-29T23:18:23.867Z,58.58
2022-11-29T23:24:16.689Z,49.97
2022-11-29T23:30:09.238Z,57.67
2022-11-29T23:36:05.075Z,56.05
2022-11-29T23:41:57.704Z,53.05
2022-11-29T23:47:49.834Z,55.90
2022-11-29T23:53:42.605Z,53.45
2022-11-29T23:59:35.010Z,50.65
